createdAt,value
2018-08-12T00:00:27.634Z,12.90
2018-08-12T00:03:02.757Z,12.80
2018-08-12T00:05:38.057Z,12.70
2018-08-12T00:08:13.150Z,12.70
2018-08-12T00:10:48.469Z,12.60
2018-08-12T00:13:24.430Z,12.60
2018-08-12T00:15:59.264Z,12.50
2018-08-12T00:18:33.996Z,12.60
2018-08-12T00:21:09.513Z,12.50
2018-08-12T00:23:44.274Z,12.60
2018-08-12T00:26:19.249Z,12.60
2018-08-12T00:28:54.065Z,12.50
2018-08-12T00:31:29.130Z,12.50
2018-08-12T00:34:03.827Z,12.60
2018-08-12T00:36:38.880Z,12.40
2018-08-12T00:39:14.105Z,12.40
2018-08-12T00:41:49.207Z,12.50
2018-08-12T00:44:24.250Z,12.40
2018-08-12T00:46:59.261Z,12.50
2018-08-12T00:49:34.066Z,12.50
2018-08-12T00:52:08.826Z,12.50
2018-08-12T00:54:43.864Z,12.40
2018-08-12T00:57:18.564Z,12.30
2018-08-12T00:59:53.619Z,12.40
2018-08-12T01:02:28.740Z,12.40
2018-08-12T01:05:03.654Z,12.20
2018-08-12T01:07:38.845Z,11.80
2018-08-12T01:10:13.975Z,11.80
2018-08-12T01:12:48.999Z,11.90
2018-08-12T01:15:23.615Z,11.90
2018-08-12T01:17:58.777Z,11.90
2018-08-12T01:20:33.596Z,11.70
2018-08-12T01:23:08.278Z,11.70
2018-08-12T01:25:43.366Z,11.70
2018-08-12T01:28:18.590Z,11.80
2018-08-12T01:30:54.605Z,11.80
2018-08-12T01:33:29.514Z,11.90
2018-08-12T01:36:04.402Z,11.90
2018-08-12T01:38:39.309Z,11.90
2018-08-12T01:41:14.383Z,11.80
2018-08-12T01:43:48.919Z,11.60
2018-08-12T01:46:24.313Z,11.40
2018-08-12T01:49:00.194Z,11.40
2018-08-12T01:51:35.065Z,11.40
2018-08-12T01:54:10.143Z,11.20
2018-08-12T01:56:44.921Z,11.10
2018-08-12T01:59:19.950Z,11.20
2018-08-12T02:01:55.397Z,11.20
2018-08-12T02:04:30.348Z,11.20
2018-08-12T02:07:06.093Z,11.10
2018-08-12T02:09:41.298Z,11.10
2018-08-12T02:12:16.820Z,11.00
2018-08-12T02:14:51.980Z,11.10
2018-08-12T02:17:27.013Z,11.10
2018-08-12T02:20:02.357Z,11.20
2018-08-12T02:22:37.808Z,11.10
2018-08-12T02:25:13.145Z,11.10
2018-08-12T02:27:48.087Z,10.90
2018-08-12T02:30:23.045Z,11.00
2018-08-12T02:32:58.185Z,11.10
2018-08-12T02:35:33.145Z,11.20
2018-08-12T02:38:08.761Z,11.10
2018-08-12T02:40:43.470Z,11.10
2018-08-12T02:43:18.370Z,11.00
2018-08-12T02:45:53.867Z,10.90
2018-08-12T02:48:29.598Z,10.80
2018-08-12T02:51:04.586Z,10.70
2018-08-12T02:53:39.825Z,10.60
2018-08-12T02:56:14.790Z,10.60
2018-08-12T02:58:49.638Z,10.50
2018-08-12T03:01:24.276Z,10.50
2018-08-12T03:03:59.186Z,10.30
2018-08-12T03:06:34.155Z,10.30
2018-08-12T03:09:11.133Z,10.40
2018-08-12T03:11:46.144Z,10.40
2018-08-12T03:14:20.917Z,10.40
2018-08-12T03:16:56.067Z,10.40
2018-08-12T03:19:30.880Z,10.30
2018-08-12T03:22:06.558Z,10.30
2018-08-12T03:24:41.686Z,10.30
2018-08-12T03:27:16.396Z,10.30
2018-08-12T03:29:51.359Z,10.30
2018-08-12T03:32:26.353Z,10.20
2018-08-12T03:35:01.645Z,10.20
2018-08-12T03:37:36.826Z,10.30
2018-08-12T03:40:13.061Z,10.30
2018-08-12T03:42:48.192Z,10.20
2018-08-12T03:45:22.969Z,10.30
2018-08-12T03:47:58.038Z,10.30
2018-08-12T03:50:32.873Z,10.40
2018-08-12T03:53:08.329Z,10.30
2018-08-12T03:55:43.827Z,10.30
2018-08-12T03:58:18.737Z,10.30
2018-08-12T04:00:54.298Z,10.20
2018-08-12T04:03:29.377Z,10.00
2018-08-12T04:06:04.254Z,10.00
2018-08-12T04:08:38.890Z,9.80
2018-08-12T04:11:13.637Z,9.70
2018-08-12T04:13:48.443Z,9.80
2018-08-12T04:16:23.459Z,9.60
2018-08-12T04:18:58.213Z,9.60
2018-08-12T04:21:33.177Z,9.60
2018-08-12T04:24:08.037Z,9.70
2018-08-12T04:26:43.749Z,9.60
2018-08-12T04:29:24.852Z,9.70
2018-08-12T04:31:59.779Z,9.70
2018-08-12T04:34:34.508Z,9.80
2018-08-12T04:37:09.502Z,9.90
2018-08-12T04:39:44.206Z,9.90
2018-08-12T04:42:19.052Z,10.00
2018-08-12T04:44:54.390Z,10.00
2018-08-12T04:47:29.001Z,10.10
2018-08-12T04:50:05.138Z,10.20
2018-08-12T04:52:39.738Z,10.20
2018-08-12T04:55:14.735Z,10.30
2018-08-12T04:57:50.026Z,10.30
2018-08-12T05:00:24.905Z,10.30
2018-08-12T05:02:59.838Z,10.40
2018-08-12T05:05:35.090Z,10.40
2018-08-12T05:08:10.124Z,10.60
2018-08-12T05:10:48.734Z,10.70
2018-08-12T05:13:23.786Z,10.80
2018-08-12T05:15:59.005Z,10.90
2018-08-12T05:18:34.347Z,10.90
2018-08-12T05:21:09.978Z,11.00
2018-08-12T05:23:45.309Z,11.10
2018-08-12T05:26:20.157Z,11.20
2018-08-12T05:28:55.134Z,11.30
2018-08-12T05:31:30.369Z,11.40
2018-08-12T05:34:05.062Z,11.40
2018-08-12T05:36:40.058Z,11.50
2018-08-12T05:39:15.255Z,11.60
2018-08-12T05:41:50.734Z,11.70
2018-08-12T05:44:25.501Z,11.80
2018-08-12T05:47:00.265Z,11.90
2018-08-12T05:49:35.161Z,12.00
2018-08-12T05:52:10.658Z,12.10
2018-08-12T05:54:45.353Z,12.10
2018-08-12T05:57:20.503Z,12.20
2018-08-12T05:59:55.373Z,12.30
2018-08-12T06:02:30.235Z,12.40
2018-08-12T06:05:06.735Z,12.60
2018-08-12T06:07:42.073Z,12.60
2018-08-12T06:10:17.124Z,12.80
2018-08-12T06:12:52.073Z,12.90
2018-08-12T06:15:27.165Z,13.00
2018-08-12T06:18:02.848Z,13.10
2018-08-12T06:20:37.966Z,13.10
2018-08-12T06:23:12.806Z,13.20
2018-08-12T06:25:47.591Z,13.30
2018-08-12T06:28:22.800Z,13.60
2018-08-12T06:30:57.657Z,13.70
2018-08-12T06:33:32.886Z,13.90
2018-08-12T06:36:07.798Z,13.80
2018-08-12T06:38:43.127Z,13.80
2018-08-12T06:41:17.919Z,13.90
2018-08-12T06:43:53.298Z,14.00
2018-08-12T06:46:28.243Z,14.10
2018-08-12T06:49:03.262Z,14.20
2018-08-12T06:51:38.130Z,14.30
2018-08-12T06:54:13.153Z,14.30
2018-08-12T06:56:48.382Z,14.40
2018-08-12T06:59:23.442Z,14.50
2018-08-12T07:01:58.330Z,14.60
2018-08-12T07:04:33.489Z,14.70
2018-08-12T07:07:08.672Z,14.80
2018-08-12T07:09:43.431Z,14.80
2018-08-12T07:12:18.810Z,15.00
2018-08-12T07:14:53.418Z,15.10
2018-08-12T07:17:28.614Z,15.20
2018-08-12T07:20:04.000Z,15.30
2018-08-12T07:22:40.162Z,15.50
2018-08-12T07:25:15.285Z,15.60
2018-08-12T07:27:50.012Z,15.70
2018-08-12T07:30:24.670Z,15.80
2018-08-12T07:32:59.525Z,16.00
2018-08-12T07:35:39.036Z,16.00
2018-08-12T07:38:14.633Z,16.20
2018-08-12T07:40:49.494Z,16.30
2018-08-12T07:43:24.299Z,16.50
2018-08-12T07:45:59.333Z,16.80
2018-08-12T07:48:34.102Z,17.00
2018-08-12T07:51:09.111Z,17.10
2018-08-12T07:53:44.039Z,17.10
2018-08-12T07:56:19.073Z,17.30
2018-08-12T07:58:54.313Z,17.60
2018-08-12T08:01:29.314Z,17.80
2018-08-12T08:04:04.256Z,17.80
2018-08-12T08:06:39.579Z,17.80
2018-08-12T08:09:14.723Z,18.00
2018-08-12T08:11:49.753Z,18.10
2018-08-12T08:14:24.572Z,18.10
2018-08-12T08:16:59.652Z,18.40
2018-08-12T08:19:34.573Z,18.50
2018-08-12T08:22:09.470Z,18.60
2018-08-12T08:24:44.791Z,18.80
2018-08-12T08:27:19.773Z,18.90
2018-08-12T08:29:54.418Z,19.10
2018-08-12T08:32:30.082Z,19.50
2018-08-12T08:35:06.093Z,19.60
2018-08-12T08:37:41.405Z,19.90
2018-08-12T08:40:18.113Z,19.90
2018-08-12T08:42:53.565Z,20.00
2018-08-12T08:45:29.458Z,20.20
2018-08-12T08:48:05.024Z,20.40
2018-08-12T08:50:41.029Z,20.60
2018-08-12T08:53:16.613Z,20.80
2018-08-12T08:55:52.227Z,20.80
2018-08-12T08:58:27.922Z,21.10
2018-08-12T09:01:03.686Z,21.20
2018-08-12T09:03:39.105Z,21.40
2018-08-12T09:06:14.542Z,21.60
2018-08-12T09:08:50.143Z,21.70
2018-08-12T09:11:25.550Z,21.60
2018-08-12T09:14:01.294Z,22.30
2018-08-12T09:16:38.421Z,23.00
2018-08-12T09:19:14.125Z,23.90
2018-08-12T09:21:49.857Z,24.70
2018-08-12T09:24:25.188Z,25.10
2018-08-12T09:27:00.594Z,25.50
2018-08-12T09:29:36.497Z,26.00
2018-08-12T09:32:12.890Z,26.40
2018-08-12T09:34:49.005Z,27.00
2018-08-12T09:37:24.960Z,27.50
2018-08-12T09:40:00.502Z,28.50
2018-08-12T09:42:35.522Z,28.30
2018-08-12T09:45:14.631Z,27.90
2018-08-12T09:47:49.594Z,28.40
2018-08-12T09:50:25.031Z,28.70
2018-08-12T09:53:00.258Z,28.80
2018-08-12T09:55:35.208Z,29.20
2018-08-12T09:58:11.886Z,29.30
2018-08-12T10:00:46.794Z,29.10
2018-08-12T10:03:21.930Z,29.50
2018-08-12T10:05:57.393Z,29.20
2018-08-12T10:08:32.354Z,29.50
2018-08-12T10:11:07.439Z,29.90
2018-08-12T10:13:42.961Z,30.70
2018-08-12T10:16:18.767Z,30.40
2018-08-12T10:18:53.799Z,30.50
2018-08-12T10:21:28.968Z,31.00
2018-08-12T10:24:04.536Z,31.20
2018-08-12T10:26:39.549Z,31.10
2018-08-12T10:29:15.763Z,31.60
2018-08-12T10:31:51.087Z,31.80
2018-08-12T10:34:26.953Z,30.80
2018-08-12T10:37:02.705Z,31.30
2018-08-12T10:39:37.721Z,31.70
2018-08-12T10:42:12.804Z,31.50
2018-08-12T10:44:48.001Z,30.80
2018-08-12T10:47:23.104Z,32.10
2018-08-12T10:49:58.307Z,32.80
2018-08-12T10:52:33.487Z,32.60
2018-08-12T10:55:09.432Z,32.40
2018-08-12T10:57:45.035Z,32.30
2018-08-12T11:00:24.270Z,32.90
2018-08-12T11:02:59.794Z,32.70
2018-08-12T11:05:34.930Z,33.30
2018-08-12T11:08:10.436Z,34.20
2018-08-12T11:10:45.642Z,33.30
2018-08-12T11:13:21.612Z,31.60
2018-08-12T11:15:56.922Z,32.20
2018-08-12T11:18:32.471Z,33.10
2018-08-12T11:21:07.783Z,33.90
2018-08-12T11:23:43.062Z,34.10
2018-08-12T11:26:18.214Z,34.10
2018-08-12T11:28:53.250Z,34.70
2018-08-12T11:31:28.465Z,34.80
2018-08-12T11:34:04.135Z,35.00
2018-08-12T11:36:39.429Z,35.10
2018-08-12T11:39:15.550Z,34.80
2018-08-12T11:41:50.789Z,34.50
2018-08-12T11:44:25.850Z,35.20
2018-08-12T11:47:01.052Z,34.80
2018-08-12T11:49:36.175Z,33.80
2018-08-12T11:52:14.229Z,34.70
2018-08-12T11:54:49.286Z,35.60
2018-08-12T11:57:24.363Z,36.30
2018-08-12T11:59:59.508Z,36.20
2018-08-12T12:02:34.944Z,36.10
2018-08-12T12:05:12.212Z,34.60
2018-08-12T12:07:48.161Z,36.00
2018-08-12T12:10:23.723Z,36.20
2018-08-12T12:12:59.605Z,36.00
2018-08-12T12:15:35.158Z,35.50
2018-08-12T12:18:10.371Z,35.20
2018-08-12T12:20:45.580Z,35.60
2018-08-12T12:23:22.531Z,35.70
2018-08-12T12:25:58.425Z,36.80
2018-08-12T12:28:33.712Z,35.00
2018-08-12T12:31:09.319Z,35.10
2018-08-12T12:33:44.492Z,35.20
2018-08-12T12:36:19.746Z,36.30
2018-08-12T12:38:54.981Z,35.00
2018-08-12T12:41:30.246Z,35.50
2018-08-12T12:44:06.539Z,36.60
2018-08-12T12:46:41.446Z,36.70
2018-08-12T12:49:16.780Z,35.30
2018-08-12T12:51:51.993Z,36.40
2018-08-12T12:54:27.647Z,36.80
2018-08-12T12:57:02.803Z,36.90
2018-08-12T12:59:38.409Z,36.30
2018-08-12T13:02:13.577Z,36.00
2018-08-12T13:04:49.313Z,36.10
2018-08-12T13:07:24.739Z,36.40
2018-08-12T13:10:00.290Z,36.50
2018-08-12T13:12:35.364Z,37.10
2018-08-12T13:15:11.733Z,37.10
2018-08-12T13:17:46.934Z,36.10
2018-08-12T13:20:22.174Z,36.90
2018-08-12T13:22:57.869Z,37.00
2018-08-12T13:25:33.064Z,36.70
2018-08-12T13:28:08.405Z,36.70
2018-08-12T13:30:43.666Z,35.90
2018-08-12T13:33:18.670Z,35.50
2018-08-12T13:35:53.842Z,36.10
2018-08-12T13:38:29.066Z,36.00
2018-08-12T13:41:04.217Z,36.90
2018-08-12T13:43:39.634Z,36.60
2018-08-12T13:46:14.955Z,37.90
2018-08-12T13:48:50.504Z,37.80
2018-08-12T13:51:25.661Z,37.10
2018-08-12T13:54:01.303Z,37.70
2018-08-12T13:56:36.643Z,37.20
2018-08-12T13:59:11.813Z,37.60
2018-08-12T14:01:46.895Z,36.70
2018-08-12T14:04:22.053Z,36.50
2018-08-12T14:06:57.208Z,36.50
2018-08-12T14:09:32.545Z,36.40
2018-08-12T14:12:08.272Z,37.20
2018-08-12T14:14:43.271Z,37.20
2018-08-12T14:17:18.321Z,36.90
2018-08-12T14:19:53.370Z,37.40
2018-08-12T14:22:28.468Z,36.60
2018-08-12T14:25:03.537Z,36.20
2018-08-12T14:27:39.437Z,36.70
2018-08-12T14:30:18.102Z,37.70
2018-08-12T14:32:53.163Z,38.20
2018-08-12T14:35:28.517Z,36.90
2018-08-12T14:38:04.914Z,36.30
2018-08-12T14:40:40.606Z,35.40
2018-08-12T14:43:15.714Z,35.70
2018-08-12T14:45:51.200Z,36.70
2018-08-12T14:48:26.999Z,37.00
2018-08-12T14:51:03.047Z,35.80
2018-08-12T14:53:38.485Z,35.60
2018-08-12T14:56:13.565Z,36.20
2018-08-12T14:58:48.648Z,36.50
2018-08-12T15:01:23.914Z,36.70
2018-08-12T15:03:59.298Z,36.30
2018-08-12T15:06:34.415Z,36.20
2018-08-12T15:09:11.742Z,36.40
2018-08-12T15:11:47.561Z,36.90
2018-08-12T15:14:29.467Z,36.40
2018-08-12T15:17:04.793Z,36.10
2018-08-12T15:19:39.959Z,36.00
2018-08-12T15:22:15.064Z,36.20
2018-08-12T15:24:50.579Z,35.90
2018-08-12T15:27:25.676Z,35.40
2018-08-12T15:30:01.517Z,35.50
2018-08-12T15:32:36.871Z,35.80
2018-08-12T15:35:12.513Z,37.00
2018-08-12T15:37:48.378Z,36.30
2018-08-12T15:40:23.366Z,36.80
2018-08-12T15:42:58.649Z,36.50
2018-08-12T15:45:33.858Z,37.00
2018-08-12T15:48:09.181Z,36.70
2018-08-12T15:50:44.780Z,37.20
2018-08-12T15:53:19.978Z,36.90
2018-08-12T15:55:55.424Z,36.30
2018-08-12T15:58:30.603Z,36.50
2018-08-12T16:01:06.307Z,36.30
2018-08-12T16:03:41.326Z,36.30
2018-08-12T16:06:16.803Z,36.90
2018-08-12T16:08:51.863Z,36.40
2018-08-12T16:11:28.109Z,36.40
2018-08-12T16:14:03.329Z,35.50
2018-08-12T16:16:38.377Z,35.80
2018-08-12T16:19:13.990Z,35.70
2018-08-12T16:21:49.397Z,36.30
2018-08-12T16:24:24.443Z,36.20
2018-08-12T16:26:59.725Z,36.10
2018-08-12T16:29:35.437Z,35.70
2018-08-12T16:32:10.786Z,36.00
2018-08-12T16:34:45.955Z,36.30
2018-08-12T16:37:21.434Z,36.40
2018-08-12T16:39:56.489Z,35.70
2018-08-12T16:42:31.492Z,35.60
2018-08-12T16:45:07.747Z,35.70
2018-08-12T16:47:43.038Z,35.20
2018-08-12T16:50:18.201Z,35.30
2018-08-12T16:52:53.813Z,35.00
2018-08-12T16:55:28.994Z,34.40
2018-08-12T16:58:04.126Z,34.40
2018-08-12T17:00:39.158Z,34.40
2018-08-12T17:03:15.478Z,34.30
2018-08-12T17:05:50.671Z,33.90
2018-08-12T17:08:25.813Z,34.10
2018-08-12T17:11:01.256Z,32.80
2018-08-12T17:13:36.478Z,32.60
2018-08-12T17:16:11.537Z,33.00
2018-08-12T17:18:46.760Z,32.70
2018-08-12T17:21:21.688Z,32.10
2018-08-12T17:23:56.849Z,32.10
2018-08-12T17:26:31.918Z,31.80
2018-08-12T17:29:07.154Z,32.10
2018-08-12T17:31:42.112Z,32.20
2018-08-12T17:34:17.274Z,32.10
2018-08-12T17:36:52.286Z,32.10
2018-08-12T17:39:27.655Z,31.70
2018-08-12T17:42:02.621Z,31.60
2018-08-12T17:44:38.209Z,31.20
2018-08-12T17:47:13.426Z,30.90
2018-08-12T17:49:52.131Z,30.60
2018-08-12T17:52:27.411Z,30.40
2018-08-12T17:55:02.626Z,30.00
2018-08-12T17:57:38.259Z,29.60
2018-08-12T18:00:15.584Z,29.20
2018-08-12T18:02:51.229Z,28.90
2018-08-12T18:05:26.889Z,28.70
2018-08-12T18:08:02.444Z,28.70
2018-08-12T18:10:37.823Z,28.70
2018-08-12T18:13:13.074Z,28.60
2018-08-12T18:15:55.337Z,28.40
2018-08-12T18:18:30.895Z,28.20
2018-08-12T18:21:06.379Z,27.80
2018-08-12T18:23:42.547Z,27.60
2018-08-12T18:26:18.067Z,27.50
2018-08-12T18:28:53.780Z,26.80
2018-08-12T18:31:29.690Z,26.80
2018-08-12T18:34:05.033Z,26.50
2018-08-12T18:36:40.742Z,26.50
2018-08-12T18:39:16.153Z,26.30
2018-08-12T18:41:51.918Z,26.10
2018-08-12T18:44:27.428Z,25.90
2018-08-12T18:47:02.917Z,25.90
2018-08-12T18:49:38.836Z,25.60
2018-08-12T18:52:14.579Z,25.40
2018-08-12T18:54:50.077Z,25.30
2018-08-12T18:57:26.299Z,25.10
2018-08-12T19:00:03.069Z,25.00
2018-08-12T19:02:38.705Z,25.00
2018-08-12T19:05:14.956Z,24.80
2018-08-12T19:07:51.066Z,24.70
2018-08-12T19:10:26.409Z,24.50
2018-08-12T19:13:03.271Z,24.40
2018-08-12T19:15:38.776Z,24.10
2018-08-12T19:18:14.570Z,23.70
2018-08-12T19:20:50.168Z,23.80
2018-08-12T19:23:26.238Z,23.70
2018-08-12T19:26:01.738Z,23.60
2018-08-12T19:28:37.236Z,23.30
2018-08-12T19:31:13.208Z,23.40
2018-08-12T19:33:48.529Z,23.00
2018-08-12T19:36:24.126Z,23.00
2018-08-12T19:38:59.536Z,22.90
2018-08-12T19:41:35.640Z,22.90
2018-08-12T19:44:10.913Z,22.80
2018-08-12T19:46:46.347Z,22.80
2018-08-12T19:49:21.848Z,22.80
2018-08-12T19:51:57.495Z,22.60
2018-08-12T19:54:33.914Z,22.50
2018-08-12T19:57:10.001Z,22.40
2018-08-12T19:59:46.242Z,22.00
2018-08-12T20:02:28.195Z,22.00
2018-08-12T20:05:03.694Z,21.70
2018-08-12T20:07:39.253Z,21.40
2018-08-12T20:10:15.096Z,21.50
2018-08-12T20:12:51.262Z,21.50
2018-08-12T20:15:27.456Z,21.10
2018-08-12T20:18:03.471Z,21.10
2018-08-12T20:20:38.714Z,21.00
2018-08-12T20:23:14.153Z,21.10
2018-08-12T20:25:49.410Z,21.20
2018-08-12T20:28:25.230Z,20.80
2018-08-12T20:31:01.059Z,20.80
2018-08-12T20:33:36.608Z,20.90
2018-08-12T20:36:12.352Z,21.00
2018-08-12T20:38:47.828Z,20.50
2018-08-12T20:41:23.446Z,20.30
2018-08-12T20:43:58.942Z,20.20
2018-08-12T20:46:34.866Z,20.00
2018-08-12T20:49:10.330Z,20.00
2018-08-12T20:51:45.907Z,19.90
2018-08-12T20:54:22.015Z,20.00
2018-08-12T20:56:57.379Z,19.80
2018-08-12T20:59:32.866Z,19.70
2018-08-12T21:02:09.494Z,19.40
2018-08-12T21:04:48.176Z,19.40
2018-08-12T21:07:23.625Z,19.50
2018-08-12T21:09:59.033Z,19.50
2018-08-12T21:12:34.748Z,19.20
2018-08-12T21:15:10.191Z,19.20
2018-08-12T21:17:46.578Z,19.00
2018-08-12T21:20:21.526Z,18.90
2018-08-12T21:22:57.221Z,18.90
2018-08-12T21:25:32.762Z,19.00
2018-08-12T21:28:08.279Z,19.00
2018-08-12T21:30:44.125Z,18.90
2018-08-12T21:33:19.581Z,18.70
2018-08-12T21:35:55.585Z,18.50
2018-08-12T21:38:31.042Z,18.60
2018-08-12T21:41:05.994Z,18.60
2018-08-12T21:43:40.875Z,18.20
2018-08-12T21:46:15.781Z,18.00
2018-08-12T21:48:50.550Z,18.20
2018-08-12T21:51:32.245Z,18.30
2018-08-12T21:54:08.188Z,18.10
2018-08-12T21:56:43.299Z,17.90
2018-08-12T21:59:18.200Z,17.90
2018-08-12T22:01:53.080Z,17.80
2018-08-12T22:04:28.188Z,17.60
2018-08-12T22:07:03.232Z,17.80
2018-08-12T22:09:37.964Z,17.90
2018-08-12T22:12:12.884Z,17.70
2018-08-12T22:14:48.175Z,17.90
2018-08-12T22:17:23.489Z,18.00
2018-08-12T22:19:59.242Z,17.90
2018-08-12T22:22:34.515Z,18.00
2018-08-12T22:25:09.499Z,18.00
2018-08-12T22:27:44.448Z,17.90
2018-08-12T22:30:20.019Z,17.70
2018-08-12T22:32:55.390Z,17.50
2018-08-12T22:35:30.430Z,17.60
2018-08-12T22:38:05.782Z,17.40
2018-08-12T22:40:40.555Z,17.40
2018-08-12T22:43:15.400Z,17.30
2018-08-12T22:45:50.501Z,17.20
2018-08-12T22:48:28.217Z,17.10
2018-08-12T22:51:02.882Z,17.10
2018-08-12T22:53:37.750Z,17.10
2018-08-12T22:56:12.701Z,17.00
2018-08-12T22:58:48.164Z,17.00
2018-08-12T23:01:23.169Z,17.00
2018-08-12T23:03:57.829Z,17.00
2018-08-12T23:06:32.689Z,17.20
2018-08-12T23:09:09.329Z,17.00
2018-08-12T23:11:44.365Z,17.00
2018-08-12T23:14:19.610Z,16.80
2018-08-12T23:16:58.628Z,16.40
2018-08-12T23:19:34.063Z,16.40
2018-08-12T23:22:08.853Z,16.40
2018-08-12T23:24:43.971Z,16.50
2018-08-12T23:27:18.908Z,16.40
2018-08-12T23:29:53.966Z,16.30
2018-08-12T23:32:28.975Z,16.50
2018-08-12T23:35:03.845Z,16.40
2018-08-12T23:37:38.774Z,16.30
2018-08-12T23:40:14.269Z,16.10
2018-08-12T23:42:49.101Z,16.10
2018-08-12T23:45:23.853Z,16.00
2018-08-12T23:47:59.002Z,15.90
2018-08-12T23:50:34.017Z,15.90
2018-08-12T23:53:08.822Z,15.90
2018-08-12T23:55:43.894Z,15.90
2018-08-12T23:58:19.624Z,16.00
